Time;durP1;ratioP1;P1;durP2;ratioP2;P2;SDS_P1;SDS_P2;PMS_P1;PMS_P2;Temp;Humidity;BMP_temperature;BMP_pressure;BME280_temperature;BME280_humidity;BME280_pressure;Samples;Min_cycle;Max_cycle;Signal;HPM_P1;HPM_P2
2023/10/20 00:00:45;;;;;;;32.67;18.33;;;;;;;7.98;99.51;98947.91;5003514;28;20213;-72
2023/10/20 00:03:11;;;;;;;33.53;19.33;;;;;;;8.01;99.68;98949.09;5009927;28;20279;-71
2023/10/20 00:05:39;;;;;;;32.37;18.67;;;;;;;7.99;99.89;98940.81;5008140;28;20202;-72
2023/10/20 00:08:06;;;;;;;31.77;18.73;;;;;;;7.99;99.77;98938.94;5006725;28;20598;-71
2023/10/20 00:10:35;;;;;;;35.00;20.47;;;;;;;8.00;99.76;98934.44;5006171;28;20209;-72
2023/10/20 00:13:01;;;;;;;32.17;18.80;;;;;;;8.00;100.00;98937.06;5001878;28;20702;-71
2023/10/20 00:15:28;;;;;;;29.43;18.00;;;;;;;8.01;100.00;98930.69;5006907;28;20213;-71
2023/10/20 00:17:55;;;;;;;33.17;19.33;;;;;;;8.00;100.00;98929.94;5006454;28;20314;-72
2023/10/20 00:20:21;;;;;;;31.00;19.60;;;;;;;8.00;99.77;98943.09;5006142;28;20201;-71
2023/10/20 00:22:49;;;;;;;32.60;18.20;;;;;;;8.00;99.78;98943.09;5010143;28;20703;-71
2023/10/20 00:25:17;;;;;;;34.20;19.23;;;;;;;8.01;99.92;98954.34;5007116;28;20792;-72
2023/10/20 00:27:43;;;;;;;33.20;19.40;;;;;;;8.00;99.92;98947.56;5006919;28;20629;-71
2023/10/20 00:30:11;;;;;;;32.30;17.17;;;;;;;8.00;99.61;98952.81;4988274;28;20537;-72
2023/10/20 00:32:39;;;;;;;31.23;17.97;;;;;;;8.01;99.32;98939.34;5006250;28;20758;-71
2023/10/20 00:35:07;;;;;;;30.60;17.80;;;;;;;8.00;99.86;98945.72;5011741;28;20201;-71
2023/10/20 00:37:35;;;;;;;31.67;17.37;;;;;;;8.01;100.00;98941.19;4991110;28;20232;-71
2023/10/20 00:40:07;;;;;;;33.53;18.83;;;;;;;7.99;99.85;98935.53;4993361;28;20223;-71
2023/10/20 00:42:33;;;;;;;33.27;18.50;;;;;;;8.01;100.00;98933.31;5007318;28;20659;-72
2023/10/20 00:45:00;;;;;;;30.53;17.07;;;;;;;7.99;99.34;98932.91;5005690;28;20522;-71
2023/10/20 00:47:27;;;;;;;36.13;18.20;;;;;;;8.00;99.43;98934.44;4990595;28;20230;-71
2023/10/20 00:49:54;;;;;;;35.07;20.00;;;;;;;8.00;99.50;98931.81;4992622;28;20209;-72
2023/10/20 00:52:22;;;;;;;32.33;19.43;;;;;;;8.00;99.37;98923.91;5010485;28;20262;-72
2023/10/20 00:54:49;;;;;;;34.63;18.90;;;;;;;8.00;99.83;98923.91;4994322;28;20204;-71
2023/10/20 00:57:18;;;;;;;37.10;20.00;;;;;;;8.00;99.78;98923.91;5008430;28;20239;-71
2023/10/20 00:59:44;;;;;;;34.17;17.97;;;;;;;8.00;99.48;98916.81;5002196;28;20215;-71
2023/10/20 01:02:12;;;;;;;36.03;19.27;;;;;;;7.99;99.73;98910.03;4994098;28;20834;-72
2023/10/20 01:04:39;;;;;;;35.30;17.50;;;;;;;8.00;99.99;98913.41;4988989;28;20208;-71
2023/10/20 01:07:06;;;;;;;39.40;19.80;;;;;;;7.99;100.00;98909.25;4994483;28;20233;-71
2023/10/20 01:09:32;;;;;;;34.70;19.00;;;;;;;7.98;99.46;98899.84;5003989;28;20214;-72
2023/10/20 01:11:59;;;;;;;37.17;20.03;;;;;;;7.99;99.68;98893.50;5005524;28;20198;-71
2023/10/20 01:14:26;;;;;;;37.17;19.40;;;;;;;7.97;99.60;98899.09;5007548;28;20211;-72
2023/10/20 01:16:53;;;;;;;34.90;18.23;;;;;;;7.97;99.25;98888.56;4986651;28;20729;-72
2023/10/20 01:19:19;;;;;;;35.67;18.03;;;;;;;7.96;99.59;98888.91;4996339;28;20199;-72
2023/10/20 01:21:45;;;;;;;36.23;20.13;;;;;;;7.96;99.71;98878.41;5000958;28;20218;-71
2023/10/20 01:24:13;;;;;;;35.10;18.17;;;;;;;7.93;100.00;98887.00;5002004;28;20212;-71
2023/10/20 01:26:43;;;;;;;38.17;19.47;;;;;;;7.93;99.89;98882.50;5003004;28;20207;-71
2023/10/20 01:29:12;;;;;;;40.97;18.90;;;;;;;7.92;99.52;98877.59;4994196;28;20213;-71
2023/10/20 01:31:38;;;;;;;36.90;18.60;;;;;;;7.92;99.95;98867.84;5008853;28;20202;-72
2023/10/20 01:34:05;;;;;;;40.00;19.40;;;;;;;7.89;99.67;98871.19;4985936;28;20688;-72
2023/10/20 01:36:31;;;;;;;37.83;19.57;;;;;;;7.90;99.36;98877.19;5005375;28;20564;-71
2023/10/20 01:38:58;;;;;;;36.57;19.80;;;;;;;7.88;99.88;98872.25;5004152;28;20573;-72
2023/10/20 01:41:26;;;;;;;38.57;19.97;;;;;;;7.87;100.00;98856.88;5005879;28;20801;-72
2023/10/20 01:43:52;;;;;;;39.93;20.20;;;;;;;7.87;100.00;98859.50;5004078;28;20216;-71
2023/10/20 01:46:20;;;;;;;35.93;19.27;;;;;;;7.84;99.78;98860.19;5006253;28;20264;-72
2023/10/20 01:48:46;;;;;;;38.27;19.37;;;;;;;7.83;99.95;98867.28;4991095;28;20224;-71
2023/10/20 01:51:12;;;;;;;35.27;18.87;;;;;;;7.84;99.69;98857.56;4992677;28;20206;-72
2023/10/20 01:53:39;;;;;;;40.10;19.37;;;;;;;7.82;99.93;98860.53;4987720;28;20201;-72
2023/10/20 01:56:05;;;;;;;35.13;18.07;;;;;;;7.81;100.00;98861.63;5007600;28;20217;-71
2023/10/20 01:58:33;;;;;;;37.73;19.17;;;;;;;7.82;99.96;98857.16;4993199;28;20312;-71
2023/10/20 02:00:59;;;;;;;41.30;19.10;;;;;;;7.81;99.70;98863.53;4991118;28;20526;-72
2023/10/20 02:03:25;;;;;;;41.97;19.70;;;;;;;7.81;99.61;98850.38;5007878;28;20221;-72
2023/10/20 02:05:52;;;;;;;40.83;20.37;;;;;;;7.80;100.00;98854.88;5009570;28;20203;-71
2023/10/20 02:08:18;;;;;;;38.90;19.30;;;;;;;7.79;100.00;98855.97;5002633;28;20558;-72
2023/10/20 02:10:45;;;;;;;42.93;21.13;;;;;;;7.79;99.77;98858.59;4992277;28;20223;-71
2023/10/20 02:13:11;;;;;;;43.70;20.90;;;;;;;7.78;100.00;98851.84;4998192;28;20235;-72
2023/10/20 02:15:39;;;;;;;41.97;20.20;;;;;;;7.78;100.00;98836.06;4996379;28;20204;-72
2023/10/20 02:18:06;;;;;;;41.77;20.07;;;;;;;7.79;100.00;98826.31;4988003;28;20224;-71
2023/10/20 02:20:33;;;;;;;44.83;21.23;;;;;;;7.76;99.82;98821.75;5008675;28;20207;-72
2023/10/20 02:22:59;;;;;;;35.20;19.53;;;;;;;7.76;100.00;98824.41;5007396;28;20224;-71
2023/10/20 02:25:27;;;;;;;38.60;19.33;;;;;;;7.74;100.00;98826.59;4993886;28;20585;-71
2023/10/20 02:27:53;;;;;;;46.07;20.10;;;;;;;7.74;100.00;98829.22;4991342;28;20240;-72
2023/10/20 02:30:19;;;;;;;47.20;21.40;;;;;;;7.73;100.00;98825.84;5005895;28;20502;-72
2023/10/20 02:32:47;;;;;;;48.07;22.10;;;;;;;7.73;100.00;98817.97;5008744;28;20571;-72
2023/10/20 02:35:14;;;;;;;38.07;20.00;;;;;;;7.73;100.00;98827.69;4993282;28;20212;-70
2023/10/20 02:37:40;;;;;;;45.97;20.90;;;;;;;7.72;100.00;98824.31;4992103;28;20243;-71
2023/10/20 02:40:10;;;;;;;44.50;20.93;;;;;;;7.72;100.00;98818.31;4993608;28;20693;-72
2023/10/20 02:42:36;;;;;;;41.63;21.57;;;;;;;7.72;100.00;98820.94;5008820;28;20280;-71
2023/10/20 02:45:09;;;;;;;39.80;20.37;;;;;;;7.71;100.00;98806.28;4994223;28;20209;-72
2023/10/20 02:47:36;;;;;;;46.63;20.13;;;;;;;7.71;100.00;98808.91;4989430;28;20958;-71
2023/10/20 02:50:06;;;;;;;42.87;21.97;;;;;;;7.69;100.00;98814.50;4994282;28;20218;-72
2023/10/20 02:52:33;;;;;;;40.67;21.57;;;;;;;7.69;100.00;98821.63;4995544;28;20204;-72
2023/10/20 02:54:59;;;;;;;54.83;22.33;;;;;;;7.68;100.00;98826.13;5006431;28;20206;-71
2023/10/20 02:57:25;;;;;;;41.20;19.90;;;;;;;7.68;100.00;98820.09;4990495;28;20235;-71
2023/10/20 02:59:52;;;;;;;46.63;21.70;;;;;;;7.68;100.00;98825.34;5009211;28;20215;-71
2023/10/20 03:02:20;;;;;;;41.83;21.93;;;;;;;7.69;100.00;98816.38;5006669;28;20235;-72
2023/10/20 03:04:46;;;;;;;44.77;20.07;;;;;;;7.68;100.00;98815.63;4997949;28;20325;-71
2023/10/20 03:07:14;;;;;;;50.57;21.90;;;;;;;7.69;100.00;98819.00;5005662;28;20699;-72
2023/10/20 03:09:40;;;;;;;44.70;20.70;;;;;;;7.68;100.00;98813.00;4990888;28;20201;-71
2023/10/20 03:12:06;;;;;;;39.87;20.00;;;;;;;7.69;99.95;98806.63;5011022;28;20205;-71
2023/10/20 03:14:34;;;;;;;40.63;20.60;;;;;;;7.70;100.00;98808.13;5008876;28;20205;-71
2023/10/20 03:17:01;;;;;;;41.53;20.63;;;;;;;7.70;100.00;98810.00;5008978;28;20702;-71
2023/10/20 03:19:28;;;;;;;41.10;21.20;;;;;;;7.70;100.00;98813.41;5011253;28;20212;-71
2023/10/20 03:21:54;;;;;;;39.40;21.70;;;;;;;7.69;100.00;98806.63;4988912;28;20274;-72
2023/10/20 03:24:22;;;;;;;40.70;21.13;;;;;;;7.70;100.00;98800.25;5007657;28;20213;-71
2023/10/20 03:26:48;;;;;;;37.67;19.03;;;;;;;7.70;100.00;98802.88;5007305;28;20239;-72
2023/10/20 03:29:15;;;;;;;44.40;21.63;;;;;;;7.71;100.00;98811.53;5008091;28;20221;-71
2023/10/20 03:31:42;;;;;;;41.63;20.37;;;;;;;7.70;100.00;98799.50;5009234;28;20219;-71
2023/10/20 03:34:10;;;;;;;37.53;18.70;;;;;;;7.72;100.00;98794.66;5011556;28;20228;-71
2023/10/20 03:36:36;;;;;;;39.47;19.43;;;;;;;7.70;100.00;98792.38;5003388;28;20647;-71
2023/10/20 03:39:14;;;;;;;32.10;18.00;;;;;;;7.71;99.94;98798.41;5007098;28;20210;-72
2023/10/20 03:41:42;;;;;;;33.70;17.47;;;;;;;7.69;99.67;98797.97;5003748;28;20200;-72
2023/10/20 03:44:08;;;;;;;28.70;16.70;;;;;;;7.70;99.51;98792.38;5008080;28;20270;-72
2023/10/20 03:46:43;;;;;;;30.70;17.13;;;;;;;7.70;99.88;98783.72;5007361;28;20219;-71
2023/10/20 03:49:09;;;;;;;25.43;15.23;;;;;;;7.69;100.00;98771.72;5009120;28;20216;-72
2023/10/20 03:51:37;;;;;;;23.40;14.73;;;;;;;7.68;100.00;98772.81;5006552;28;20227;-72
2023/10/20 03:54:05;;;;;;;25.73;15.03;;;;;;;7.66;100.00;98770.53;5011129;28;20196;-72
2023/10/20 03:56:34;;;;;;;22.10;14.80;;;;;;;7.66;100.00;98775.78;5008977;28;20213;-71
2023/10/20 03:59:02;;;;;;;22.47;14.73;;;;;;;7.65;99.87;98760.38;5007788;28;20629;-71
2023/10/20 04:01:28;;;;;;;19.80;13.20;;;;;;;7.66;99.89;98756.66;5012067;28;20231;-71
2023/10/20 04:03:55;;;;;;;20.40;13.27;;;;;;;7.64;99.86;98764.13;5000730;28;20221;-72
2023/10/20 04:06:22;;;;;;;19.27;12.87;;;;;;;7.64;99.79;98756.22;5008871;28;20212;-71
2023/10/20 04:08:49;;;;;;;17.73;13.40;;;;;;;7.64;99.98;98753.59;5002295;28;20227;-71
2023/10/20 04:11:15;;;;;;;17.27;11.57;;;;;;;7.63;100.00;98758.13;5008472;28;20200;-71
2023/10/20 04:13:41;;;;;;;21.20;12.57;;;;;;;7.62;99.65;98764.47;5008084;28;20721;-72
2023/10/20 04:16:13;;;;;;;18.50;12.10;;;;;;;7.63;99.15;98766.00;5009643;28;20699;-72
2023/10/20 04:18:39;;;;;;;17.43;12.10;;;;;;;7.62;99.66;98755.84;5003475;28;20758;-71
2023/10/20 04:21:06;;;;;;;16.20;11.30;;;;;;;7.62;99.03;98742.69;5008487;28;20205;-72
2023/10/20 04:23:32;;;;;;;16.87;11.83;;;;;;;7.64;99.03;98733.38;5008464;28;20235;-71
2023/10/20 04:25:58;;;;;;;22.67;11.57;;;;;;;7.64;99.42;98743.09;5005859;28;20204;-71
2023/10/20 04:28:32;;;;;;;16.57;12.07;;;;;;;7.63;99.02;98745.00;5002201;28;20225;-71
2023/10/20 04:42:45;;;;;;;18.07;11.43;;;;;;;7.60;99.14;98735.16;5010197;28;20246;-71
2023/10/20 04:48:15;;;;;;;15.00;10.37;;;;;;;7.60;99.32;98731.78;5004005;28;20575;-71
2023/10/20 04:53:45;;;;;;;26.67;14.80;;;;;;;7.59;98.90;98738.91;5013336;28;20216;-71
2023/10/20 04:56:35;;;;;;;21.87;13.23;;;;;;;7.61;98.73;98741.94;5006906;28;20205;-71
2023/10/20 04:59:05;;;;;;;18.47;12.50;;;;;;;7.61;99.53;98718.28;5004725;28;20338;-71
2023/10/20 05:01:40;;;;;;;19.37;11.83;;;;;;;7.59;98.93;98720.53;5001327;28;20236;-71
2023/10/20 05:04:13;;;;;;;19.27;12.70;;;;;;;7.60;99.01;98710.75;5005925;28;20611;-70
2023/10/20 05:06:43;;;;;;;22.23;14.30;;;;;;;7.60;99.15;98724.66;5007857;28;20290;-71
2023/10/20 05:09:13;;;;;;;21.63;13.20;;;;;;;7.58;98.78;98729.50;5007106;28;20673;-71
2023/10/20 05:11:40;;;;;;;24.77;15.10;;;;;;;7.60;99.47;98734.41;5002095;28;21317;-71
2023/10/20 05:14:06;;;;;;;22.57;12.90;;;;;;;7.60;99.11;98726.50;5003752;28;20309;-71
2023/10/20 05:16:33;;;;;;;23.40;14.30;;;;;;;7.59;99.16;98712.63;5007634;28;20212;-71
2023/10/20 05:19:03;;;;;;;23.63;13.77;;;;;;;7.60;99.48;98695.78;5008139;28;20203;-71
2023/10/20 05:21:29;;;;;;;22.40;13.00;;;;;;;7.58;99.34;98692.75;5003731;28;20624;-71
2023/10/20 05:23:57;;;;;;;24.73;14.67;;;;;;;7.59;99.69;98699.50;5002740;28;20299;-71
2023/10/20 05:26:24;;;;;;;27.27;14.83;;;;;;;7.60;99.53;98697.63;5005684;28;20217;-71
2023/10/20 05:28:50;;;;;;;21.07;14.77;;;;;;;7.59;99.37;98702.13;5006142;28;20371;-72
2023/10/20 05:31:22;;;;;;;26.27;15.73;;;;;;;7.60;98.93;98708.13;5001025;28;20203;-71
2023/10/20 05:33:49;;;;;;;28.00;15.80;;;;;;;7.59;99.53;98717.13;5002696;28;20208;-71
2023/10/20 05:36:15;;;;;;;28.23;15.40;;;;;;;7.59;99.73;98727.63;5006965;28;20212;-71
2023/10/20 05:38:41;;;;;;;29.93;17.23;;;;;;;7.56;99.56;98721.22;5008731;28;20243;-71
2023/10/20 05:41:09;;;;;;;26.83;15.57;;;;;;;7.55;99.58;98719.69;5007699;28;20215;-72
2023/10/20 05:43:35;;;;;;;29.47;16.17;;;;;;;7.58;99.20;98697.22;5013707;28;20221;-71
2023/10/20 05:46:02;;;;;;;29.20;16.97;;;;;;;7.59;99.49;98688.22;5012581;28;20216;-71
2023/10/20 05:48:28;;;;;;;35.13;18.10;;;;;;;7.60;99.42;98684.50;5009243;28;20275;-72
2023/10/20 05:50:57;;;;;;;32.20;17.00;;;;;;;7.55;100.00;98680.31;5005555;28;20216;-70
2023/10/20 05:53:24;;;;;;;33.10;17.77;;;;;;;7.57;99.73;98680.69;5011711;28;20209;-71
2023/10/20 05:55:50;;;;;;;32.20;17.50;;;;;;;7.57;99.98;98687.84;5009451;28;20219;-72
2023/10/20 05:58:17;;;;;;;37.17;18.97;;;;;;;7.56;100.00;98679.19;5009008;28;20225;-71
2023/10/20 06:00:44;;;;;;;35.90;18.97;;;;;;;7.56;99.89;98694.94;5008858;28;20215;-72
2023/10/20 06:03:11;;;;;;;39.70;19.90;;;;;;;7.56;99.49;98691.56;5010305;28;20218;-71
2023/10/20 06:05:38;;;;;;;35.80;17.73;;;;;;;7.54;100.00;98684.03;5010756;28;20200;-72
2023/10/20 06:08:05;;;;;;;34.37;18.27;;;;;;;7.55;99.80;98682.16;4996496;28;20229;-72
2023/10/20 06:10:31;;;;;;;39.33;18.63;;;;;;;7.55;99.91;98688.19;5013472;28;20213;-71
2023/10/20 06:12:57;;;;;;;38.77;19.37;;;;;;;7.54;99.99;98680.66;5009717;28;20208;-72
2023/10/20 06:15:25;;;;;;;41.83;19.43;;;;;;;7.56;99.90;98681.81;5011813;28;20227;-71
2023/10/20 06:17:52;;;;;;;42.47;20.47;;;;;;;7.55;100.00;98676.91;5014320;28;20223;-71
2023/10/20 06:20:19;;;;;;;38.87;19.27;;;;;;;7.55;100.00;98669.03;5014216;28;20282;-72
2023/10/20 06:22:46;;;;;;;47.57;20.43;;;;;;;7.53;100.00;98674.66;5007639;28;20611;-72
2023/10/20 06:25:13;;;;;;;36.43;18.13;;;;;;;7.52;100.00;98678.41;5008374;28;20208;-72
2023/10/20 06:27:41;;;;;;;42.27;19.07;;;;;;;7.54;100.00;98680.66;5013008;28;20228;-72
2023/10/20 06:30:14;;;;;;;42.87;19.07;;;;;;;7.54;100.00;98670.13;5008856;28;20205;-71
2023/10/20 06:32:43;;;;;;;37.90;18.37;;;;;;;7.53;100.00;98661.53;5010497;28;20263;-71
2023/10/20 06:35:12;;;;;;;43.17;18.57;;;;;;;7.54;100.00;98657.78;5014138;28;20204;-71
2023/10/20 06:37:42;;;;;;;42.70;19.37;;;;;;;7.53;100.00;98653.66;5010803;28;20785;-71
2023/10/20 06:40:12;;;;;;;44.73;18.80;;;;;;;7.54;100.00;98644.66;5011907;28;20200;-71
2023/10/20 06:42:38;;;;;;;48.03;21.10;;;;;;;7.54;100.00;98631.53;5006794;28;20209;-72
2023/10/20 06:45:05;;;;;;;45.63;20.27;;;;;;;7.55;100.00;98635.66;5008457;28;20216;-72
2023/10/20 06:47:32;;;;;;;43.20;19.57;;;;;;;7.56;100.00;98665.31;5008601;28;20244;-72
2023/10/20 06:50:00;;;;;;;38.23;19.23;;;;;;;7.55;100.00;98656.66;5008514;28;20200;-72
2023/10/20 06:52:26;;;;;;;39.67;19.43;;;;;;;7.57;100.00;98651.81;5011331;28;20655;-72
2023/10/20 06:54:56;;;;;;;36.37;17.33;;;;;;;7.55;100.00;98642.75;5009558;28;20686;-72
2023/10/20 06:57:23;;;;;;;42.13;18.03;;;;;;;7.57;100.00;98643.94;5011707;28;20243;-72
2023/10/20 06:59:50;;;;;;;37.33;17.20;;;;;;;7.56;100.00;98633.81;5011004;28;20200;-71
2023/10/20 07:02:16;;;;;;;39.00;17.07;;;;;;;7.57;100.00;98638.69;5010849;28;20211;-72
2023/10/20 07:04:42;;;;;;;37.57;17.27;;;;;;;7.57;100.00;98630.81;5010094;28;20220;-72
2023/10/20 07:07:13;;;;;;;34.03;15.37;;;;;;;7.57;100.00;98625.53;5010732;28;20318;-72
2023/10/20 07:09:40;;;;;;;35.33;15.97;;;;;;;7.57;100.00;98643.94;5008357;28;20299;-72
2023/10/20 07:12:07;;;;;;;26.73;15.17;;;;;;;7.56;100.00;98646.94;5012904;28;20205;-70
2023/10/20 07:14:33;;;;;;;33.77;16.10;;;;;;;7.57;100.00;98632.69;5013114;28;20217;-72
2023/10/20 07:17:03;;;;;;;29.63;14.83;;;;;;;7.58;100.00;98639.44;5005997;28;20305;-72
2023/10/20 07:19:30;;;;;;;29.37;14.83;;;;;;;7.57;100.00;98625.53;5009434;28;20232;-72
2023/10/20 07:21:56;;;;;;;29.90;14.43;;;;;;;7.56;100.00;98616.16;5013169;28;20587;-72
2023/10/20 07:24:24;;;;;;;28.20;13.23;;;;;;;7.56;100.00;98600.41;5008404;28;20227;-71
2023/10/20 07:26:51;;;;;;;30.67;14.10;;;;;;;7.57;100.00;98593.28;5012945;28;20236;-72
2023/10/20 07:29:18;;;;;;;26.47;13.93;;;;;;;7.57;100.00;98588.03;5012877;28;20207;-71
2023/10/20 07:31:47;;;;;;;24.90;14.40;;;;;;;7.57;100.00;98591.41;5007378;28;20344;-72
2023/10/20 07:34:13;;;;;;;24.20;14.43;;;;;;;7.58;100.00;98589.53;5008430;28;20200;-71
2023/10/20 07:36:40;;;;;;;23.23;14.23;;;;;;;7.57;100.00;98596.66;5010198;28;20223;-71
2023/10/20 07:39:08;;;;;;;23.77;12.80;;;;;;;7.55;100.00;98558.72;5010010;28;20228;-72
2023/10/20 07:41:36;;;;;;;21.03;11.63;;;;;;;7.55;100.00;98574.47;5011270;28;20296;-72
2023/10/20 07:44:02;;;;;;;27.53;13.60;;;;;;;7.55;100.00;98567.38;5012116;28;20236;-71
2023/10/20 07:46:31;;;;;;;26.43;12.53;;;;;;;7.54;99.98;98576.38;5010905;28;20197;-71
2023/10/20 07:48:57;;;;;;;21.97;11.60;;;;;;;7.54;100.00;98555.34;5007194;28;20208;-72
2023/10/20 07:51:24;;;;;;;21.37;11.20;;;;;;;7.54;100.00;98567.72;5013320;28;20209;-71
2023/10/20 07:53:50;;;;;;;23.23;11.03;;;;;;;7.52;99.56;98554.97;5010417;28;20675;-72
2023/10/20 07:56:17;;;;;;;25.73;11.93;;;;;;;7.53;99.95;98572.22;5008549;28;20204;-71
2023/10/20 07:58:44;;;;;;;22.47;12.13;;;;;;;7.51;99.60;98558.69;5011445;28;20627;-72
2023/10/20 08:01:11;;;;;;;20.83;11.23;;;;;;;7.52;99.93;98548.94;5004665;28;20204;-71
2023/10/20 08:03:37;;;;;;;22.23;10.77;;;;;;;7.52;100.00;98541.84;5010588;28;20222;-71
2023/10/20 08:06:05;;;;;;;20.77;11.30;;;;;;;7.51;100.00;98547.44;5011614;28;20220;-72
2023/10/20 08:08:32;;;;;;;24.60;11.40;;;;;;;7.53;99.71;98548.59;5008442;28;20879;-72
2023/10/20 08:10:59;;;;;;;18.10;10.37;;;;;;;7.51;99.88;98531.69;5008423;28;20290;-72
2023/10/20 08:13:25;;;;;;;21.33;11.17;;;;;;;7.52;100.00;98522.69;5006594;28;20216;-71
2023/10/20 08:15:53;;;;;;;19.87;10.80;;;;;;;7.50;100.00;98517.03;5009114;28;20220;-72
2023/10/20 08:18:19;;;;;;;19.73;11.17;;;;;;;7.50;100.00;98520.41;5010385;28;20228;-72
2023/10/20 08:20:46;;;;;;;17.83;10.73;;;;;;;7.49;100.00;98532.03;5008930;28;20212;-72
2023/10/20 08:23:12;;;;;;;15.80;10.07;;;;;;;7.51;99.95;98529.78;5005907;28;20219;-71
2023/10/20 08:25:38;;;;;;;20.20;10.73;;;;;;;7.52;99.81;98541.06;5010983;28;20208;-72
2023/10/20 08:28:07;;;;;;;23.70;11.93;;;;;;;7.52;99.91;98541.84;5006568;28;20614;-72
2023/10/20 08:30:34;;;;;;;19.80;11.80;;;;;;;7.53;99.58;98535.47;5008346;28;20200;-71
2023/10/20 08:33:03;;;;;;;28.53;13.10;;;;;;;7.52;99.54;98538.44;5015122;28;20897;-72
2023/10/20 08:35:30;;;;;;;24.60;13.47;;;;;;;7.54;99.16;98538.84;5011623;28;20208;-72
2023/10/20 08:37:57;;;;;;;29.17;15.87;;;;;;;7.54;99.45;98538.84;5009065;28;20245;-72
2023/10/20 08:40:23;;;;;;;36.33;15.87;;;;;;;7.55;100.00;98532.47;5007746;28;20199;-72
2023/10/20 08:42:51;;;;;;;24.70;12.23;;;;;;;7.54;100.00;98526.47;5008589;28;20200;-72
2023/10/20 08:45:19;;;;;;;24.87;13.80;;;;;;;7.54;100.00;98518.59;5013437;28;20225;-70
2023/10/20 08:47:45;;;;;;;22.97;12.30;;;;;;;7.54;99.30;98520.44;5008565;28;20476;-72
2023/10/20 08:50:16;;;;;;;20.50;12.20;;;;;;;7.56;99.68;98520.88;5010540;28;20220;-71
2023/10/20 08:52:44;;;;;;;20.50;11.00;;;;;;;7.57;99.35;98527.63;5006778;28;20619;-71
2023/10/20 08:55:10;;;;;;;19.30;12.37;;;;;;;7.57;100.00;98520.50;5009570;28;20299;-72
2023/10/20 08:57:37;;;;;;;24.33;12.37;;;;;;;7.56;100.00;98518.97;5009547;28;20610;-72
2023/10/20 09:00:07;;;;;;;24.83;11.50;;;;;;;7.59;99.49;98520.91;5009030;28;22571;-72
2023/10/20 09:02:37;;;;;;;28.43;16.40;;;;;;;7.60;99.52;98532.94;4999872;28;20204;-72
2023/10/20 09:05:04;;;;;;;23.43;12.40;;;;;;;7.63;99.96;98518.34;5007651;28;20708;-72
2023/10/20 09:07:32;;;;;;;27.17;12.50;;;;;;;7.64;99.97;98509.34;5004533;28;20320;-72
2023/10/20 09:09:58;;;;;;;23.13;11.67;;;;;;;7.62;99.26;98496.56;5012968;28;20595;-72
2023/10/20 09:12:26;;;;;;;20.63;11.57;;;;;;;7.64;99.77;98494.34;5011084;28;20211;-71
2023/10/20 09:14:53;;;;;;;20.50;12.17;;;;;;;7.65;99.65;98482.72;5009975;28;20219;-71
2023/10/20 09:17:23;;;;;;;21.07;10.33;;;;;;;7.64;100.00;98483.84;5008646;28;20287;-70
2023/10/20 09:19:49;;;;;;;21.83;12.50;;;;;;;7.68;100.00;98491.75;5008961;28;20829;-72
2023/10/20 09:22:16;;;;;;;21.93;12.07;;;;;;;7.68;99.55;98486.50;5013342;28;20211;-72
2023/10/20 09:24:45;;;;;;;25.80;12.37;;;;;;;7.67;100.00;98485.72;5013477;28;20249;-72
2023/10/20 09:27:11;;;;;;;21.77;12.73;;;;;;;7.66;99.77;98505.25;4995297;28;20224;-72
2023/10/20 09:29:39;;;;;;;21.90;13.07;;;;;;;7.70;99.40;98510.53;5011968;28;20575;-71
2023/10/20 09:32:06;;;;;;;26.07;17.10;;;;;;;7.69;99.69;98509.78;5013840;28;20624;-72
2023/10/20 09:34:32;;;;;;;18.90;11.67;;;;;;;7.70;99.51;98505.28;5007754;28;20215;-71
2023/10/20 09:37:00;;;;;;;20.50;11.97;;;;;;;7.69;99.63;98488.78;5007555;28;20557;-72
2023/10/20 09:39:38;;;;;;;22.70;11.13;;;;;;;7.68;99.48;98494.38;5016370;28;20204;-71
2023/10/20 09:42:07;;;;;;;21.73;11.43;;;;;;;7.68;99.06;98476.75;5016408;28;20215;-72
2023/10/20 09:44:39;;;;;;;20.27;13.37;;;;;;;7.69;99.24;98473.03;5012144;28;20244;-72
2023/10/20 09:47:17;;;;;;;21.73;12.00;;;;;;;7.68;98.84;98466.25;5014113;28;20291;-71
2023/10/20 09:49:44;;;;;;;22.00;11.93;;;;;;;7.69;99.36;98459.88;5012196;28;20303;-72
2023/10/20 09:52:11;;;;;;;20.07;11.97;;;;;;;7.70;99.63;98465.88;5016552;28;20555;-72
2023/10/20 09:54:38;;;;;;;19.77;11.47;;;;;;;7.71;99.79;98454.28;5010468;28;20609;-72
2023/10/20 09:57:06;;;;;;;21.03;12.63;;;;;;;7.73;99.21;98444.16;5012233;28;20236;-71
2023/10/20 09:59:34;;;;;;;20.17;11.77;;;;;;;7.75;99.36;98424.31;5009327;28;20208;-72
2023/10/20 10:02:00;;;;;;;25.27;14.63;;;;;;;7.75;100.00;98403.28;5013237;28;20204;-72
2023/10/20 10:04:29;;;;;;;23.83;13.70;;;;;;;7.76;99.86;98412.69;5012082;28;20747;-72
2023/10/20 10:06:56;;;;;;;29.43;14.03;;;;;;;7.78;99.63;98409.69;5016211;28;21081;-71
2023/10/20 10:09:23;;;;;;;30.90;14.70;;;;;;;7.79;100.00;98429.59;5011226;28;20584;-72
2023/10/20 10:11:49;;;;;;;24.90;14.27;;;;;;;7.79;99.23;98422.47;4997079;28;21258;-72
2023/10/20 10:14:21;;;;;;;22.13;14.67;;;;;;;7.83;99.71;98417.25;5007066;28;20685;-71
2023/10/20 10:16:53;;;;;;;21.90;13.97;;;;;;;7.86;100.00;98424.41;5009587;28;20712;-72
2023/10/20 10:19:21;;;;;;;42.53;23.80;;;;;;;7.86;99.51;98409.41;5011677;28;20754;-72
2023/10/20 10:21:53;;;;;;;25.07;15.90;;;;;;;7.88;99.40;98403.81;5011004;28;20205;-72
2023/10/20 10:24:21;;;;;;;28.07;14.47;;;;;;;7.89;98.68;98403.44;5012894;28;20587;-72
2023/10/20 10:26:50;;;;;;;27.20;13.73;;;;;;;7.93;99.58;98406.84;5008477;28;20212;-72
2023/10/20 10:29:17;;;;;;;21.93;13.60;;;;;;;7.94;98.99;98426.00;5010649;28;20196;-71
2023/10/20 10:31:45;;;;;;;28.00;17.17;;;;;;;7.94;97.52;98433.91;5012343;28;20287;-72
2023/10/20 10:34:11;;;;;;;26.97;14.87;;;;;;;7.96;98.50;98436.91;5011242;28;20219;-72
2023/10/20 10:36:45;;;;;;;30.27;17.10;;;;;;;7.97;98.66;98425.31;5011302;28;20203;-72
2023/10/20 10:39:23;;;;;;;30.67;16.90;;;;;;;7.99;99.05;98426.44;5016884;28;21632;-72
2023/10/20 10:41:52;;;;;;;25.73;15.10;;;;;;;7.98;98.12;98426.81;5009109;28;20209;-72
2023/10/20 10:44:19;;;;;;;27.33;16.70;;;;;;;7.99;98.31;98418.56;5012409;28;20223;-72
2023/10/20 10:46:47;;;;;;;26.20;14.67;;;;;;;8.01;98.47;98416.31;5010178;28;20282;-71
2023/10/20 10:49:14;;;;;;;28.23;15.57;;;;;;;7.99;99.05;98394.16;5011036;28;20215;-72
2023/10/20 10:51:45;;;;;;;26.27;15.70;;;;;;;7.97;99.34;98385.88;5010580;28;20200;-71
2023/10/20 10:54:11;;;;;;;26.00;15.00;;;;;;;7.97;98.75;98380.63;5009258;28;20198;-72
2023/10/20 10:56:37;;;;;;;31.60;16.80;;;;;;;7.94;98.78;98371.59;5009320;28;20210;-71
2023/10/20 10:59:04;;;;;;;25.00;14.73;;;;;;;7.93;99.29;98390.34;5009174;28;20204;-72
2023/10/20 11:01:31;;;;;;;26.33;15.17;;;;;;;7.92;98.86;98391.47;5012229;28;20233;-71
2023/10/20 11:03:59;;;;;;;32.30;17.43;;;;;;;7.91;98.46;98392.56;5007372;28;20795;-71
2023/10/20 11:06:25;;;;;;;23.20;14.20;;;;;;;7.88;98.17;98388.03;5012290;28;20571;-72
2023/10/20 11:08:53;;;;;;;28.70;14.67;;;;;;;7.89;98.80;98397.44;5009772;28;20662;-71
2023/10/20 11:11:19;;;;;;;24.10;14.60;;;;;;;7.86;98.62;98404.16;5010860;28;20201;-72
2023/10/20 11:13:46;;;;;;;29.20;15.10;;;;;;;7.84;99.22;98414.28;5009777;28;20277;-71
2023/10/20 11:16:14;;;;;;;27.57;15.13;;;;;;;7.83;98.10;98425.88;5005279;28;20676;-72
2023/10/20 11:18:45;;;;;;;24.17;14.20;;;;;;;7.84;99.05;98430.03;5009525;28;20233;-72
2023/10/20 11:21:14;;;;;;;23.33;13.57;;;;;;;7.84;98.81;98445.03;5007887;28;20691;-71
2023/10/20 11:23:40;;;;;;;23.27;12.87;;;;;;;7.82;98.67;98453.28;5005658;28;20669;-72
2023/10/20 11:26:14;;;;;;;22.90;12.53;;;;;;;7.81;98.23;98448.41;5009760;28;20227;-72
2023/10/20 11:28:41;;;;;;;22.60;12.50;;;;;;;7.78;98.59;98447.25;5009635;28;20219;-72
2023/10/20 11:31:07;;;;;;;24.83;13.33;;;;;;;7.77;98.01;98450.22;5008738;28;20213;-73
2023/10/20 11:33:34;;;;;;;20.90;12.70;;;;;;;7.77;98.51;98448.34;5013130;28;20285;-72
2023/10/20 11:36:01;;;;;;;25.87;13.07;;;;;;;7.75;99.03;98455.06;5006521;28;20694;-72
2023/10/20 11:38:29;;;;;;;21.43;11.83;;;;;;;7.75;98.47;98455.06;5014713;28;20226;-71
2023/10/20 11:40:55;;;;;;;23.60;12.90;;;;;;;7.73;99.12;98452.81;5014292;28;20442;-72